Time;durP1;ratioP1;P1;durP2;ratioP2;P2;SDS_P1;SDS_P2;PMS_P1;PMS_P2;Temp;Humidity;BMP_temperature;BMP_pressure;BME280_temperature;BME280_humidity;BME280_pressure;Samples;Min_cycle;Max_cycle;Signal;HPM_P1;HPM_P2
2021/01/17 00:00:08;;;;;;;;;;;;;;;-2.11;86.61;101649.84;4975976;28;1903;-78
2021/01/17 00:02:34;;;;;;;;;;;;;;;-2.12;86.27;101645.50;4975754;28;1143;-78
2021/01/17 00:05:00;;;;;;;;;;;;;;;-2.13;87.01;101644.69;4975564;28;797;-77
2021/01/17 00:07:28;;;;;;;;;;;;;;;-2.13;86.52;101638.44;4974489;28;2087;-77
2021/01/17 00:09:54;;;;;;;;;;;;;;;-2.11;86.12;101641.72;4975098;28;1331;-77
2021/01/17 00:12:19;;;;;;;;;;;;;;;-2.12;86.91;101640.91;4976075;28;981;-77
2021/01/17 00:14:44;;;;;;;;;;;;;;;-2.13;86.38;101631.16;4976557;28;945;-77
2021/01/17 00:17:10;;;;;;;;;;;;;;;-2.11;86.04;101622.78;4978460;28;1279;-77
2021/01/17 00:19:35;;;;;;;;;;;;;;;-2.14;86.48;101623.28;4980983;28;1894;-77
2021/01/17 00:22:00;;;;;;;;;;;;;;;-2.13;86.38;101611.38;4982313;28;2078;-77
2021/01/17 00:24:26;;;;;;;;;;;;;;;-2.10;86.13;101610.91;4981496;28;1478;-77
2021/01/17 00:26:51;;;;;;;;;;;;;;;-2.08;85.69;101611.47;4979753;28;859;-78
2021/01/17 00:29:16;;;;;;;;;;;;;;;-2.09;85.75;101609.84;4978396;28;2069;-77
2021/01/17 00:31:41;;;;;;;;;;;;;;;-2.10;85.94;101605.50;4978999;28;1075;-77
2021/01/17 00:34:07;;;;;;;;;;;;;;;-2.09;85.33;101607.94;4979308;28;1037;-77
2021/01/17 00:36:39;;;;;;;;;;;;;;;-2.10;85.65;101614.41;4979151;28;920;-77
2021/01/17 00:39:08;;;;;;;;;;;;;;;-2.10;85.15;101616.31;4976971;28;2055;-77
2021/01/17 00:41:34;;;;;;;;;;;;;;;-2.10;85.81;101616.31;4979220;28;2383;-77
2021/01/17 00:44:00;;;;;;;;;;;;;;;-2.09;85.84;101617.97;4978969;28;1088;-77
2021/01/17 00:46:26;;;;;;;;;;;;;;;-2.09;85.62;101613.38;4979313;28;830;-77
2021/01/17 00:48:51;;;;;;;;;;;;;;;-2.08;85.06;101615.03;4978853;28;1272;-77
2021/01/17 00:51:16;;;;;;;;;;;;;;;-2.09;85.27;101610.66;4978959;28;1094;-77
2021/01/17 00:53:42;;;;;;;;;;;;;;;-2.09;85.72;101618.78;4978325;28;2104;-78
2021/01/17 00:56:07;;;;;;;;;;;;;;;-2.08;85.55;101608.78;4978530;28;822;-77
2021/01/17 00:58:32;;;;;;;;;;;;;;;-2.10;85.88;101609.00;4978662;28;1902;-77
2021/01/17 01:00:58;;;;;;;;;;;;;;;-2.10;85.94;101609.00;4978699;28;874;-77
2021/01/17 01:03:23;;;;;;;;;;;;;;;-2.07;85.20;101613.13;4978153;28;2080;-77
2021/01/17 01:05:49;;;;;;;;;;;;;;;-2.10;85.55;101606.28;4978590;28;2297;-78
2021/01/17 01:08:14;;;;;;;;;;;;;;;-2.13;85.90;101617.63;4977999;28;1350;-77
2021/01/17 01:10:39;;;;;;;;;;;;;;;-2.13;85.46;101620.34;4978923;28;957;-77
2021/01/17 01:13:05;;;;;;;;;;;;;;;-2.14;85.85;101620.56;4977965;28;2114;-76
2021/01/17 01:15:30;;;;;;;;;;;;;;;-2.14;86.29;101612.44;4976780;28;1325;-77
2021/01/17 01:17:56;;;;;;;;;;;;;;;-2.15;85.47;101603.50;4978123;28;1271;-77
2021/01/17 01:20:21;;;;;;;;;;;;;;;-2.13;85.34;101604.09;4978353;28;1961;-77
2021/01/17 01:22:47;;;;;;;;;;;;;;;-2.14;85.42;101593.50;4978610;28;927;-78
2021/01/17 01:25:13;;;;;;;;;;;;;;;-2.14;85.64;101601.63;4978252;28;873;-77
2021/01/17 01:27:38;;;;;;;;;;;;;;;-2.16;85.15;101601.88;4976385;28;2419;-77
2021/01/17 01:30:05;;;;;;;;;;;;;;;-2.16;85.76;101601.06;4976870;28;948;-77
2021/01/17 01:32:30;;;;;;;;;;;;;;;-2.16;85.45;101593.75;4978072;28;1226;-77
2021/01/17 01:34:56;;;;;;;;;;;;;;;-2.14;85.42;101585.38;4978494;28;865;-77
2021/01/17 01:37:22;;;;;;;;;;;;;;;-2.13;85.52;101584.31;4977560;28;2359;-77
2021/01/17 01:39:48;;;;;;;;;;;;;;;-2.14;85.34;101578.09;4978339;28;1898;-77
2021/01/17 01:42:14;;;;;;;;;;;;;;;-2.16;84.97;101582.09;4977771;28;867;-77
2021/01/17 01:44:39;;;;;;;;;;;;;;;-2.16;85.34;101576.69;4977736;28;987;-77
2021/01/17 01:47:04;;;;;;;;;;;;;;;-2.15;85.28;101583.72;4977550;28;865;-78
2021/01/17 01:49:30;;;;;;;;;;;;;;;-2.15;85.02;101575.63;4977942;28;1350;-77
2021/01/17 01:52:01;;;;;;;;;;;;;;;-2.15;85.67;101575.63;4976482;28;2396;-77
2021/01/17 01:54:27;;;;;;;;;;;;;;;-2.15;85.54;101579.13;4978077;28;814;-77
2021/01/17 01:56:53;;;;;;;;;;;;;;;-2.14;84.49;101569.97;4977777;28;991;-77
2021/01/17 01:59:20;;;;;;;;;;;;;;;-2.17;84.95;101570.44;4977131;28;1933;-77
2021/01/17 02:01:47;;;;;;;;;;;;;;;-2.14;84.79;101571.84;4977759;28;885;-77
2021/01/17 02:04:13;;;;;;;;;;;;;;;-2.15;84.95;101567.50;4977544;28;1007;-77
2021/01/17 02:07:14;;;;;;;;;;;;;;;-2.15;84.72;101564.78;4977155;28;1004;-77
2021/01/17 02:09:41;;;;;;;;;;;;;;;-2.17;85.25;101558.81;4977138;28;1907;-77
2021/01/17 02:12:29;;;;;;;;;;;;;;;-2.17;84.94;101553.38;4977575;28;877;-77
2021/01/17 02:15:03;;;;;;;;;;;;;;;-2.16;85.00;101563.16;4977097;28;847;-77
2021/01/17 02:17:31;;;;;;;;;;;;;;;-2.18;85.37;101547.16;4976061;28;1967;-77
2021/01/17 02:20:30;;;;;;;;;;;;;;;-2.17;85.10;101547.97;4957735;28;1965;-77
2021/01/17 02:23:11;;;;;;;;;;;;;;;-2.19;85.29;101545.50;4958201;29;906;-77
2021/01/17 02:25:38;;;;;;;;;;;;;;;-2.19;85.15;101547.41;4958284;28;988;-77
2021/01/17 02:28:07;;;;;;;;;;;;;;;-2.18;85.23;101543.63;4976695;28;1795;-76
2021/01/17 02:30:40;;;;;;;;;;;;;;;-2.18;85.23;101541.75;4959583;28;1251;-76
2021/01/17 02:33:20;;;;;;;;;;;;;;;-2.18;85.49;101539.03;4976717;28;949;-77
2021/01/17 02:35:47;;;;;;;;;;;;;;;-2.17;85.06;101543.38;4977081;28;2038;-78
2021/01/17 02:38:21;;;;;;;;;;;;;;;-2.17;84.70;101532.56;4976387;28;1898;-76
2021/01/17 02:41:25;;;;;;;;;;;;;;;-2.16;85.65;101530.69;4976766;28;825;-77
2021/01/17 02:43:51;;;;;;;;;;;;;;;-2.17;85.35;101529.84;4976740;28;904;-77
2021/01/17 02:46:16;;;;;;;;;;;;;;;-2.16;84.66;101531.50;4981651;28;2017;-77
2021/01/17 02:48:42;;;;;;;;;;;;;;;-2.15;84.39;101529.59;4976994;28;1353;-77
2021/01/17 02:51:07;;;;;;;;;;;;;;;-2.16;84.72;101523.38;4976855;28;912;-77
2021/01/17 02:53:43;;;;;;;;;;;;;;;-2.16;84.71;101531.50;4976798;28;988;-77
2021/01/17 02:56:17;;;;;;;;;;;;;;;-2.18;84.65;101530.94;4976709;28;2087;-77
2021/01/17 02:58:45;;;;;;;;;;;;;;;-2.17;84.57;101518.22;4976220;28;1959;-77
2021/01/17 03:01:12;;;;;;;;;;;;;;;-2.18;84.41;101520.09;4977311;28;798;-77
2021/01/17 03:03:42;;;;;;;;;;;;;;;-2.17;83.77;101520.91;4976651;28;857;-77
2021/01/17 03:06:09;;;;;;;;;;;;;;;-2.19;84.57;101521.16;4976274;28;2363;-76
2021/01/17 03:08:37;;;;;;;;;;;;;;;-2.19;84.99;101520.34;4975613;28;1267;-77
2021/01/17 03:11:02;;;;;;;;;;;;;;;-2.18;84.27;101517.41;4976794;28;892;-77
2021/01/17 03:13:29;;;;;;;;;;;;;;;-2.19;84.50;101523.88;4976867;28;941;-77
2021/01/17 03:15:55;;;;;;;;;;;;;;;-2.17;83.87;101526.34;4976566;28;2016;-77
2021/01/17 03:18:20;;;;;;;;;;;;;;;-2.17;83.65;101527.13;4976138;28;1891;-77
2021/01/17 03:20:45;;;;;;;;;;;;;;;-2.18;83.88;101522.81;4975022;28;1379;-77
2021/01/17 03:23:11;;;;;;;;;;;;;;;-2.18;83.66;101530.94;4974918;28;807;-77
2021/01/17 03:25:36;;;;;;;;;;;;;;;-2.18;83.99;101520.09;4976691;28;892;-77
2021/01/17 03:28:01;;;;;;;;;;;;;;;-2.18;83.79;101530.94;4975906;28;2407;-77
2021/01/17 03:30:27;;;;;;;;;;;;;;;-2.18;84.12;101522.81;4976792;28;863;-77
2021/01/17 03:32:52;;;;;;;;;;;;;;;-2.19;83.91;101523.88;4976045;28;932;-77
2021/01/17 03:35:17;;;;;;;;;;;;;;;-2.20;83.99;101522.22;4976243;28;1186;-77
2021/01/17 03:37:43;;;;;;;;;;;;;;;-2.20;84.12;101527.63;4975610;28;2108;-77
2021/01/17 03:40:08;;;;;;;;;;;;;;;-2.17;83.81;101526.34;4976278;28;1953;-77
2021/01/17 03:42:34;;;;;;;;;;;;;;;-2.18;83.78;101521.97;4975996;28;2081;-77
2021/01/17 03:44:59;;;;;;;;;;;;;;;-2.18;83.25;101530.09;4975856;28;914;-77
2021/01/17 03:47:24;;;;;;;;;;;;;;;-2.22;83.91;101523.53;4974530;28;1354;-77
2021/01/17 03:49:50;;;;;;;;;;;;;;;-2.22;83.97;101524.34;4976139;28;1133;-77
2021/01/17 03:52:15;;;;;;;;;;;;;;;-2.22;83.54;101537.88;4979155;28;2334;-77
2021/01/17 03:54:41;;;;;;;;;;;;;;;-2.21;83.94;101536.00;4978719;28;872;-77
2021/01/17 03:57:06;;;;;;;;;;;;;;;-2.21;84.17;101538.72;4979633;28;794;-78
2021/01/17 03:59:31;;;;;;;;;;;;;;;-2.20;83.76;101543.84;4980081;28;1906;-77
2021/01/17 04:01:57;;;;;;;;;;;;;;;-2.22;83.61;101545.16;4979913;28;2080;-77
2021/01/17 04:04:22;;;;;;;;;;;;;;;-2.25;83.64;101546.47;4980111;28;943;-77
2021/01/17 04:06:47;;;;;;;;;;;;;;;-2.24;83.83;101547.31;4979867;28;989;-77
2021/01/17 04:09:14;;;;;;;;;;;;;;;-2.26;84.36;101536.72;4979707;28;1369;-77
2021/01/17 04:11:40;;;;;;;;;;;;;;;-2.25;84.01;101540.25;4979897;28;2028;-76
2021/01/17 04:14:05;;;;;;;;;;;;;;;-2.26;84.05;101542.13;4979413;28;1039;-77
2021/01/17 04:16:30;;;;;;;;;;;;;;;-2.27;84.06;101535.91;4979361;28;949;-77
2021/01/17 04:18:56;;;;;;;;;;;;;;;-2.25;84.82;101540.25;4979305;28;1894;-77
2021/01/17 04:21:21;;;;;;;;;;;;;;;-2.25;84.46;101534.81;4979444;28;2111;-77
2021/01/17 04:23:46;;;;;;;;;;;;;;;-2.25;85.03;101534.81;4979628;28;992;-77
2021/01/17 04:26:12;;;;;;;;;;;;;;;-2.28;85.21;101534.25;4979124;28;878;-77
2021/01/17 04:28:37;;;;;;;;;;;;;;;-2.29;85.30;101535.28;4978978;28;1365;-77
2021/01/17 04:31:03;;;;;;;;;;;;;;;-2.30;85.51;101538.28;4978784;28;2147;-77
2021/01/17 04:33:28;;;;;;;;;;;;;;;-2.33;85.36;101536.03;4979566;28;869;-76
2021/01/17 04:35:54;;;;;;;;;;;;;;;-2.39;85.41;101535.09;4979318;28;860;-77
2021/01/17 04:38:19;;;;;;;;;;;;;;;-2.38;85.96;101533.22;4978480;28;1903;-77
2021/01/17 04:40:45;;;;;;;;;;;;;;;-2.38;85.74;101533.22;4979052;28;1986;-77
2021/01/17 04:43:26;;;;;;;;;;;;;;;-2.38;85.99;101533.22;4979555;28;971;-77
2021/01/17 04:45:52;;;;;;;;;;;;;;;-2.37;86.46;101532.16;4978909;28;1071;-77
2021/01/17 04:48:18;;;;;;;;;;;;;;;-2.37;85.92;101532.16;4977688;28;1324;-76
2021/01/17 04:50:46;;;;;;;;;;;;;;;-2.38;86.14;101536.75;4978776;28;2103;-76
2021/01/17 04:53:12;;;;;;;;;;;;;;;-2.35;85.80;101536.28;4984513;28;905;-77
2021/01/17 04:55:40;;;;;;;;;;;;;;;-2.35;85.44;101535.47;4978530;28;1056;-77
2021/01/17 04:58:08;;;;;;;;;;;;;;;-2.36;86.05;101528.41;4978739;28;1338;-77
2021/01/17 05:00:39;;;;;;;;;;;;;;;-2.40;86.09;101529.94;4978299;28;2126;-77
2021/01/17 05:03:19;;;;;;;;;;;;;;;-2.40;86.12;101533.47;4978425;28;2467;-77
2021/01/17 05:06:07;;;;;;;;;;;;;;;-2.41;86.35;101536.41;4979078;28;924;-77
2021/01/17 05:08:34;;;;;;;;;;;;;;;-2.43;86.50;101535.84;4969125;28;1326;-77
2021/01/17 05:11:06;;;;;;;;;;;;;;;-2.43;86.25;101531.25;4978533;28;2155;-77
2021/01/17 05:13:47;;;;;;;;;;;;;;;-2.41;86.38;101533.72;4978686;28;885;-76
2021/01/17 05:16:14;;;;;;;;;;;;;;;-2.44;86.83;101535.00;4978748;28;846;-77
2021/01/17 05:18:46;;;;;;;;;;;;;;;-2.41;86.87;101531.00;4976527;28;1947;-77
2021/01/17 05:21:24;;;;;;;;;;;;;;;-2.40;86.90;101538.06;4978320;28;979;-77
2021/01/17 05:23:57;;;;;;;;;;;;;;;-2.41;87.01;101537.22;4978204;28;1182;-77
2021/01/17 05:26:22;;;;;;;;;;;;;;;-2.46;87.39;101545.22;4978877;28;925;-77
2021/01/17 05:28:47;;;;;;;;;;;;;;;-2.54;87.68;101543.72;4977631;28;2035;-76
2021/01/17 05:31:17;;;;;;;;;;;;;;;-2.58;88.36;101547.16;4978705;28;948;-77
2021/01/17 05:33:42;;;;;;;;;;;;;;;-2.60;88.70;101535.75;4978521;28;885;-77
2021/01/17 05:36:15;;;;;;;;;;;;;;;-2.62;89.29;101537.88;4978180;28;1031;-77
2021/01/17 05:38:40;;;;;;;;;;;;;;;-2.60;89.18;101546.56;4977354;28;2066;-77
2021/01/17 05:41:05;;;;;;;;;;;;;;;-2.60;89.21;101546.56;4978433;28;909;-76
2021/01/17 05:43:31;;;;;;;;;;;;;;;-2.63;89.43;101553.28;4978415;28;984;-77
2021/01/17 05:45:56;;;;;;;;;;;;;;;-2.61;89.62;101553.03;4978012;28;1004;-76
2021/01/17 05:48:21;;;;;;;;;;;;;;;-2.62;89.48;101551.41;4977350;28;2195;-76
2021/01/17 05:50:47;;;;;;;;;;;;;;;-2.62;89.32;101554.91;4976490;28;2082;-76
2021/01/17 05:53:12;;;;;;;;;;;;;;;-2.62;89.34;101549.50;4977955;28;838;-77
2021/01/17 05:55:41;;;;;;;;;;;;;;;-2.61;89.75;101553.03;4978034;28;846;-77
2021/01/17 05:58:18;;;;;;;;;;;;;;;-2.61;89.31;101551.16;4977431;28;1275;-77
2021/01/17 06:00:44;;;;;;;;;;;;;;;-2.58;89.44;101556.06;4977600;28;2197;-76
2021/01/17 06:03:10;;;;;;;;;;;;;;;-2.60;89.50;101555.50;4977323;28;1004;-76
2021/01/17 06:05:36;;;;;;;;;;;;;;;-2.60;89.76;101551.97;4977670;28;996;-76
2021/01/17 06:08:04;;;;;;;;;;;;;;;-2.60;89.71;101555.50;4977314;28;1362;-77
2021/01/17 06:10:30;;;;;;;;;;;;;;;-2.58;89.83;101558.78;4977056;28;1810;-77
2021/01/17 06:12:58;;;;;;;;;;;;;;;-2.59;89.43;101559.84;4977871;28;823;-77
2021/01/17 06:15:32;;;;;;;;;;;;;;;-2.60;89.10;101560.09;4976885;28;905;-77
2021/01/17 06:17:58;;;;;;;;;;;;;;;-2.61;89.26;101567.38;4975679;28;1346;-77
2021/01/17 06:20:27;;;;;;;;;;;;;;;-2.60;89.49;101562.78;4977401;28;1961;-76
2021/01/17 06:22:57;;;;;;;;;;;;;;;-2.59;89.55;101565.25;4977592;28;996;-77
2021/01/17 06:25:30;;;;;;;;;;;;;;;-2.59;89.59;101561.75;4977635;28;1051;-76
2021/01/17 06:28:13;;;;;;;;;;;;;;;-2.59;89.67;101565.25;4975658;28;1353;-77
2021/01/17 06:30:40;;;;;;;;;;;;;;;-2.60;89.57;101570.91;4977072;28;2125;-77
2021/01/17 06:33:06;;;;;;;;;;;;;;;-2.61;89.32;101559.28;4976347;28;1048;-77
2021/01/17 06:35:37;;;;;;;;;;;;;;;-2.59;89.83;101559.03;4977776;28;853;-76
2021/01/17 06:38:19;;;;;;;;;;;;;;;-2.60;89.19;101568.19;4976506;28;1319;-77
2021/01/17 06:40:47;;;;;;;;;;;;;;;-2.64;89.60;101567.84;4976776;28;2119;-77
2021/01/17 06:43:13;;;;;;;;;;;;;;;-2.62;89.39;101573.84;4975513;28;1611;-76
2021/01/17 06:45:42;;;;;;;;;;;;;;;-2.62;89.40;101573.84;4976601;28;936;-77
2021/01/17 06:48:19;;;;;;;;;;;;;;;-2.62;89.66;101576.53;4976733;28;1311;-77
2021/01/17 06:50:45;;;;;;;;;;;;;;;-2.61;90.02;101582.78;4976721;28;2127;-76
2021/01/17 06:53:23;;;;;;;;;;;;;;;-2.58;89.83;101579.59;4976737;28;921;-76
2021/01/17 06:56:07;;;;;;;;;;;;;;;-2.60;89.89;101585.25;4976987;28;954;-76
2021/01/17 06:58:33;;;;;;;;;;;;;;;-2.59;89.99;101586.09;4975920;28;2049;-77
2021/01/17 07:01:04;;;;;;;;;;;;;;;-2.57;89.65;101583.97;4976852;28;977;-77
2021/01/17 07:03:50;;;;;;;;;;;;;;;-2.59;89.79;101581.50;4974831;28;2432;-77
2021/01/17 07:06:53;;;;;;;;;;;;;;;-2.57;90.09;101578.56;4977131;28;855;-76
2021/01/17 07:09:56;;;;;;;;;;;;;;;-2.62;90.09;101576.53;4976235;28;1295;-77
2021/01/17 07:12:57;;;;;;;;;;;;;;;-2.61;89.78;101582.78;4976351;28;1974;-77
2021/01/17 07:15:30;;;;;;;;;;;;;;;-2.62;90.05;101587.38;4968423;28;1251;-76
2021/01/17 07:18:05;;;;;;;;;;;;;;;-2.65;89.73;101594.09;4976077;28;1673;-77
2021/01/17 07:20:34;;;;;;;;;;;;;;;-2.64;89.82;101592.19;4975274;28;1952;-76
2021/01/17 07:23:01;;;;;;;;;;;;;;;-2.67;89.87;101590.78;4976457;28;2428;-76
2021/01/17 07:25:27;;;;;;;;;;;;;;;-2.67;89.75;101585.38;4976668;28;884;-76
2021/01/17 07:28:02;;;;;;;;;;;;;;;-2.69;90.04;101587.47;4981553;28;1370;-76
2021/01/17 07:30:43;;;;;;;;;;;;;;;-2.67;89.75;101589.97;4975139;28;1252;-77
2021/01/17 07:33:09;;;;;;;;;;;;;;;-2.68;89.85;101596.44;4976390;28;2545;-76
2021/01/17 07:35:46;;;;;;;;;;;;;;;-2.68;89.61;101589.16;4976420;28;870;-76
2021/01/17 07:38:14;;;;;;;;;;;;;;;-2.68;89.91;101604.56;4975963;28;1299;-76
2021/01/17 07:40:50;;;;;;;;;;;;;;;-2.68;90.23;101618.06;4976002;28;940;-77
2021/01/17 07:43:16;;;;;;;;;;;;;;;-2.67;90.08;101615.09;4976451;28;2104;-77
2021/01/17 07:45:43;;;;;;;;;;;;;;;-2.63;89.74;101614.63;4976510;28;888;-77
2021/01/17 07:48:11;;;;;;;;;;;;;;;-2.64;89.31;101611.13;4977004;28;1255;-76
2021/01/17 07:50:39;;;;;;;;;;;;;;;-2.62;89.37;101614.41;4976461;28;2100;-77
2021/01/17 07:53:12;;;;;;;;;;;;;;;-2.61;89.08;101623.34;4976131;28;787;-77
2021/01/17 07:55:40;;;;;;;;;;;;;;;-2.58;89.59;101617.47;4976630;28;1015;-77
2021/01/17 07:58:10;;;;;;;;;;;;;;;-2.54;89.46;101618.66;4976294;28;1401;-77
2021/01/17 08:00:38;;;;;;;;;;;;;;;-2.52;89.00;101622.75;4982082;28;2064;-76
2021/01/17 08:03:05;;;;;;;;;;;;;;;-2.50;88.57;101620.63;4985604;28;824;-76
2021/01/17 08:05:54;;;;;;;;;;;;;;;-2.49;88.31;101622.28;4984233;28;849;-76
2021/01/17 08:08:34;;;;;;;;;;;;;;;-2.46;88.35;101627.22;4978967;28;1524;-77
2021/01/17 08:11:00;;;;;;;;;;;;;;;-2.41;88.54;101625.69;4982036;28;2068;-76
2021/01/17 08:13:32;;;;;;;;;;;;;;;-2.43;88.19;101630.50;4983138;28;814;-76
2021/01/17 08:16:11;;;;;;;;;;;;;;;-2.43;87.63;101633.22;4982892;28;1281;-77
2021/01/17 08:18:39;;;;;;;;;;;;;;;-2.43;87.37;101633.22;4983448;28;2112;-77
2021/01/17 08:21:19;;;;;;;;;;;;;;;-2.44;87.89;101631.56;4982519;28;1369;-76
2021/01/17 08:24:12;;;;;;;;;;;;;;;-2.42;87.90;101638.38;4975835;28;969;-77
2021/01/17 08:27:01;;;;;;;;;;;;;;;-2.41;87.64;101636.50;4975599;28;865;-76
2021/01/17 08:29:27;;;;;;;;;;;;;;;-2.41;87.81;101637.31;4970159;28;2041;-76
2021/01/17 08:31:53;;;;;;;;;;;;;;;-2.33;88.00;101641.53;4974987;28;1101;-77
2021/01/17 08:34:26;;;;;;;;;;;;;;;-2.29;86.99;101645.41;4975807;28;814;-76
2021/01/17 08:36:53;;;;;;;;;;;;;;;-2.29;87.13;101648.13;4976634;28;908;-76
2021/01/17 08:39:42;;;;;;;;;;;;;;;-2.28;87.07;101639.75;4978709;28;1898;-76
2021/01/17 08:42:26;;;;;;;;;;;;;;;-2.27;87.31;101641.41;4979310;28;2112;-76
2021/01/17 08:44:52;;;;;;;;;;;;;;;-2.28;87.21;101650.59;4979266;28;2088;-76
2021/01/17 08:47:21;;;;;;;;;;;;;;;-2.29;87.24;101651.63;4978930;28;1378;-77
2021/01/17 08:49:49;;;;;;;;;;;;;;;-2.25;87.36;101659.28;4979447;28;752;-76
2021/01/17 08:52:23;;;;;;;;;;;;;;;-2.23;87.23;101659.88;4979219;28;936;-76
2021/01/17 08:54:49;;;;;;;;;;;;;;;-2.18;87.04;101666.22;4979539;28;2199;-76
2021/01/17 08:57:45;;;;;;;;;;;;;;;-2.17;86.99;101667.03;4979581;28;1279;-77
2021/01/17 09:00:12;;;;;;;;;;;;;;;-2.14;86.51;101670.09;4978698;28;1898;-76
2021/01/17 09:02:40;;;;;;;;;;;;;;;-2.12;87.23;101680.69;4978896;28;2096;-77
2021/01/17 09:05:17;;;;;;;;;;;;;;;-2.17;86.74;101684.09;4979328;28;2155;-76
2021/01/17 09:07:43;;;;;;;;;;;;;;;-2.13;87.09;101685.28;4977800;28;1334;-77
2021/01/17 09:10:14;;;;;;;;;;;;;;;-2.10;87.10;101689.38;4978522;28;996;-76
2021/01/17 09:12:39;;;;;;;;;;;;;;;-2.09;86.89;101686.44;4977488;28;1189;-76
2021/01/17 09:15:20;;;;;;;;;;;;;;;-2.12;86.84;101689.63;4978401;28;2106;-76
2021/01/17 09:17:59;;;;;;;;;;;;;;;-2.12;86.65;101692.31;4977442;28;1275;-77
2021/01/17 09:20:25;;;;;;;;;;;;;;;-2.18;86.88;101696.00;4978791;28;2053;-76
2021/01/17 09:22:54;;;;;;;;;;;;;;;-2.15;87.31;101702.81;4978249;28;905;-77
2021/01/17 09:25:22;;;;;;;;;;;;;;;-2.04;87.10;101703.84;4978712;28;1050;-77
2021/01/17 09:27:50;;;;;;;;;;;;;;;-2.09;87.00;101701.88;4978051;28;1335;-77
2021/01/17 09:30:15;;;;;;;;;;;;;;;-2.08;87.12;101696.22;4978143;28;2074;-77
2021/01/17 09:32:42;;;;;;;;;;;;;;;-2.09;87.27;101697.28;4983261;28;1926;-76
2021/01/17 09:35:08;;;;;;;;;;;;;;;-2.13;87.84;101703.38;4978103;28;2071;-77
2021/01/17 09:37:34;;;;;;;;;;;;;;;-2.12;87.57;101711.28;4977450;28;1740;-77
2021/01/17 09:40:00;;;;;;;;;;;;;;;-2.15;87.56;101716.34;4978192;28;1894;-77
2021/01/17 09:42:26;;;;;;;;;;;;;;;-2.11;88.41;101721.03;4978387;28;928;-77
2021/01/17 09:44:52;;;;;;;;;;;;;;;-2.02;88.33;101716.09;4977479;28;2133;-77
2021/01/17 09:47:19;;;;;;;;;;;;;;;-1.95;88.01;101722.19;4977621;28;1462;-76
2021/01/17 09:49:46;;;;;;;;;;;;;;;-1.90;87.80;101722.31;4977408;28;984;-77
2021/01/17 09:52:13;;;;;;;;;;;;;;;-1.84;87.64;101731.34;4978751;28;927;-76
2021/01/17 09:54:39;;;;;;;;;;;;;;;-1.82;87.37;101728.41;4978203;28;1962;-77
2021/01/17 09:57:13;;;;;;;;;;;;;;;-1.80;87.32;101732.53;4977862;28;1423;-76
2021/01/17 09:59:39;;;;;;;;;;;;;;;-1.81;87.46;101736.28;4978548;28;2139;-76
2021/01/17 10:02:04;;;;;;;;;;;;;;;-1.80;86.91;101734.41;4978802;28;1993;-77
2021/01/17 10:04:30;;;;;;;;;;;;;;;-1.77;86.53;101734.75;4978206;28;2133;-77
2021/01/17 10:06:57;;;;;;;;;;;;;;;-1.78;86.78;101733.13;4978713;28;1947;-77
2021/01/17 10:09:24;;;;;;;;;;;;;;;-1.86;87.08;101732.66;4978108;28;1283;-76
2021/01/17 10:12:00;;;;;;;;;;;;;;;-1.82;87.41;101734.63;4978886;28;894;-76
2021/01/17 10:14:28;;;;;;;;;;;;;;;-1.84;87.43;101742.19;4978663;28;841;-77
2021/01/17 10:16:55;;;;;;;;;;;;;;;-1.82;87.09;101748.16;4977519;28;2105;-77
2021/01/17 10:19:34;;;;;;;;;;;;;;;-1.85;86.77;101747.81;4977923;28;1894;-76
2021/01/17 10:22:01;;;;;;;;;;;;;;;-1.75;87.34;101746.19;4975502;28;2015;-77
2021/01/17 10:24:28;;;;;;;;;;;;;;;-1.73;86.90;101743.22;4977530;28;2346;-77
2021/01/17 10:26:59;;;;;;;;;;;;;;;-1.78;87.48;101746.66;4977382;28;881;-77
2021/01/17 10:29:27;;;;;;;;;;;;;;;-1.76;87.23;101741.00;4977084;28;1961;-77
2021/01/17 10:31:58;;;;;;;;;;;;;;;-1.51;86.09;101740.69;4977283;28;2108;-77
2021/01/17 10:34:27;;;;;;;;;;;;;;;-1.35;85.70;101744.50;4977267;28;1946;-77
2021/01/17 10:36:58;;;;;;;;;;;;;;;-1.09;85.54;101747.69;4976377;28;915;-77
2021/01/17 10:39:25;;;;;;;;;;;;;;;-0.99;85.10;101740.59;4976608;28;1898;-77
2021/01/17 10:42:00;;;;;;;;;;;;;;;-1.01;84.89;101745.41;4976609;28;1902;-78
2021/01/17 10:44:27;;;;;;;;;;;;;;;-0.93;84.95;101751.50;4977046;28;2037;-77
2021/01/17 10:47:01;;;;;;;;;;;;;;;-1.18;83.95;101739.97;4976734;28;906;-77
2021/01/17 10:49:31;;;;;;;;;;;;;;;-1.24;85.84;101742.84;4977511;28;1433;-76
2021/01/17 10:52:05;;;;;;;;;;;;;;;-1.34;85.97;101740.75;4976931;28;1736;-76
2021/01/17 10:54:33;;;;;;;;;;;;;;;-1.28;85.80;101747.06;4976924;28;1990;-77
2021/01/17 10:57:03;;;;;;;;;;;;;;;-1.44;86.05;101752.19;4976682;28;877;-77
2021/01/17 10:59:30;;;;;;;;;;;;;;;-1.58;86.51;101753.53;4976466;28;1898;-77
2021/01/17 11:01:55;;;;;;;;;;;;;;;-1.62;87.04;101753.19;4976243;28;2068;-76
2021/01/17 11:04:20;;;;;;;;;;;;;;;-1.57;87.39;101747.88;4977329;28;1940;-76
2021/01/17 11:06:48;;;;;;;;;;;;;;;-1.43;86.90;101743.00;4977042;28;835;-77
2021/01/17 11:09:15;;;;;;;;;;;;;;;-1.41;87.29;101748.19;4976909;28;1650;-77
2021/01/17 11:11:52;;;;;;;;;;;;;;;-1.37;87.15;101752.06;4976280;28;2029;-77
2021/01/17 11:14:31;;;;;;;;;;;;;;;-1.46;87.45;101753.50;4976349;28;951;-77
2021/01/17 11:17:01;;;;;;;;;;;;;;;-1.58;87.85;101753.53;4976176;28;1749;-76
2021/01/17 11:19:36;;;;;;;;;;;;;;;-1.64;87.88;101746.41;4975887;28;1953;-76
2021/01/17 11:22:01;;;;;;;;;;;;;;;-1.69;87.90;101746.28;4976543;28;2134;-76
2021/01/17 11:24:34;;;;;;;;;;;;;;;-1.80;88.39;101745.22;4976745;28;862;-76
2021/01/17 11:27:15;;;;;;;;;;;;;;;-1.87;88.69;101744.53;4975372;28;897;-76
2021/01/17 11:29:42;;;;;;;;;;;;;;;-1.86;88.21;101740.78;4976236;28;1291;-76
2021/01/17 11:32:11;;;;;;;;;;;;;;;-1.81;89.04;101744.41;4976099;28;1997;-76
2021/01/17 11:34:39;;;;;;;;;;;;;;;-1.77;88.92;101744.75;4975953;28;1939;-76
2021/01/17 11:37:05;;;;;;;;;;;;;;;-1.63;88.40;101748.84;4976338;28;1263;-76
2021/01/17 11:39:31;;;;;;;;;;;;;;;-1.45;87.66;101736.19;4974277;28;1898;-76
2021/01/17 11:41:57;;;;;;;;;;;;;;;-1.48;87.98;101742.91;4976544;28;1420;-76
2021/01/17 11:44:25;;;;;;;;;;;;;;;-1.25;87.53;101735.75;4975913;28;2077;-76
2021/01/17 11:46:51;;;;;;;;;;;;;;;-1.23;86.78;101737.19;4976242;28;924;-76
2021/01/17 11:49:25;;;;;;;;;;;;;;;-1.06;86.42;101731.75;4975735;28;1942;-76
2021/01/17 11:51:50;;;;;;;;;;;;;;;-1.04;86.08;101732.38;4976469;28;849;-76
2021/01/17 11:54:21;;;;;;;;;;;;;;;-0.99;86.09;101732.47;4975877;28;830;-77
2021/01/17 11:56:48;;;;;;;;;;;;;;;-0.96;86.13;101723.81;4976310;28;927;-77
2021/01/17 11:59:34;;;;;;;;;;;;;;;-1.02;86.18;101732.09;4975763;28;1911;-77
2021/01/17 12:02:19;;;;;;;;;;;;;;;-0.90;85.52;101732.03;4976119;28;2071;-77
2021/01/17 12:04:54;;;;;;;;;;;;;;;-0.81;84.82;101723.25;4975747;28;906;-77
2021/01/17 12:07:19;;;;;;;;;;;;;;;-0.85;85.47;101724.00;4975644;28;1318;-76
2021/01/17 12:09:44;;;;;;;;;;;;;;;-0.96;85.46;101723.81;4975597;28;1906;-77
2021/01/17 12:12:18;;;;;;;;;;;;;;;-1.14;86.25;101726.75;4975413;28;1952;-77
2021/01/17 12:14:44;;;;;;;;;;;;;;;-1.11;86.18;101734.38;4979482;28;896;-77
2021/01/17 12:17:11;;;;;;;;;;;;;;;-1.13;86.39;101729.19;4980080;28;1279;-77
2021/01/17 12:19:36;;;;;;;;;;;;;;;-1.28;86.81;101728.09;4979208;28;2031;-77
2021/01/17 12:22:04;;;;;;;;;;;;;;;-1.38;87.25;101726.84;4979472;28;1863;-77
2021/01/17 12:24:29;;;;;;;;;;;;;;;-1.36;87.19;101722.00;4979946;28;884;-77
2021/01/17 12:26:56;;;;;;;;;;;;;;;-1.36;86.95;101726.63;4977967;28;2007;-77
2021/01/17 12:29:22;;;;;;;;;;;;;;;-1.34;87.62;101729.91;4979317;28;1287;-77
2021/01/17 12:31:49;;;;;;;;;;;;;;;-1.37;87.59;101728.50;4979300;28;1392;-76
2021/01/17 12:34:15;;;;;;;;;;;;;;;-1.33;87.21;101732.38;4979389;28;941;-77
2021/01/17 12:36:43;;;;;;;;;;;;;;;-1.37;87.35;101733.09;4977827;28;1961;-77
2021/01/17 12:39:11;;;;;;;;;;;;;;;-1.30;87.37;101731.06;4959790;28;1955;-77
2021/01/17 12:41:43;;;;;;;;;;;;;;;-1.37;87.67;101730.38;4973634;28;2056;-77
2021/01/17 12:44:09;;;;;;;;;;;;;;;-1.39;87.45;101724.38;4974432;28;1660;-77
2021/01/17 12:46:34;;;;;;;;;;;;;;;-1.38;87.49;101720.63;4971964;28;1620;-77
2021/01/17 12:49:00;;;;;;;;;;;;;;;-1.46;87.41;101724.53;4959364;28;1283;-77
2021/01/17 12:51:25;;;;;;;;;;;;;;;-1.47;87.86;101720.19;4960048;28;964;-77
2021/01/17 12:53:51;;;;;;;;;;;;;;;-1.49;87.38;101725.00;4961398;28;1762;-77
2021/01/17 12:56:18;;;;;;;;;;;;;;;-1.48;88.01;101720.44;4978408;28;2052;-76
2021/01/17 12:58:44;;;;;;;;;;;;;;;-1.39;87.73;101722.50;4975752;28;2001;-77
2021/01/17 13:01:10;;;;;;;;;;;;;;;-1.32;87.83;101727.78;4977575;28;1377;-78